createdAt,value
2018-12-29T00:00:56.030Z,69.59
2018-12-29T00:03:25.892Z,70.27
2018-12-29T00:05:55.794Z,71.08
2018-12-29T00:08:25.685Z,70.81
2018-12-29T00:10:55.609Z,70.61
2018-12-29T00:13:25.432Z,70.40
2018-12-29T00:15:55.382Z,69.76
2018-12-29T00:18:25.224Z,69.93
2018-12-29T00:20:55.917Z,72.99
2018-12-29T00:23:25.761Z,69.22
2018-12-29T00:25:55.646Z,65.85
2018-12-29T00:28:25.474Z,67.44
2018-12-29T00:30:55.440Z,69.84
2018-12-29T00:33:25.303Z,70.77
2018-12-29T00:35:55.210Z,71.49
2018-12-29T00:38:25.088Z,71.69
2018-12-29T00:40:55.094Z,70.78
2018-12-29T00:43:25.001Z,71.43
2018-12-29T00:45:54.832Z,71.09
2018-12-29T00:48:24.706Z,69.93
2018-12-29T00:50:54.634Z,69.77
2018-12-29T00:53:24.510Z,70.31
2018-12-29T00:55:54.342Z,69.70
2018-12-29T00:58:24.221Z,69.55
2018-12-29T01:00:54.142Z,70.07
2018-12-29T01:03:24.066Z,71.09
2018-12-29T01:05:53.980Z,70.24
2018-12-29T01:08:23.915Z,70.18
2018-12-29T01:10:53.907Z,69.69
2018-12-29T01:13:23.767Z,70.47
2018-12-29T01:15:53.697Z,70.60
2018-12-29T01:18:23.695Z,69.85
2018-12-29T01:20:53.571Z,69.63
2018-12-29T01:23:23.430Z,68.63
2018-12-29T01:25:53.381Z,68.43
2018-12-29T01:28:23.316Z,66.98
2018-12-29T01:30:53.212Z,66.89
2018-12-29T01:33:23.055Z,67.41
2018-12-29T01:35:56.083Z,68.64
2018-12-29T01:38:26.001Z,69.26
2018-12-29T01:40:55.978Z,69.34
2018-12-29T01:43:25.925Z,69.51
2018-12-29T01:45:55.947Z,70.83
2018-12-29T01:48:25.881Z,69.32
2018-12-29T01:50:55.830Z,68.84
2018-12-29T01:53:25.712Z,69.13
2018-12-29T01:55:55.560Z,70.56
2018-12-29T01:58:25.441Z,69.71
2018-12-29T02:00:55.390Z,70.34
2018-12-29T02:03:25.388Z,70.99
2018-12-29T02:05:55.334Z,70.71
2018-12-29T02:08:25.306Z,70.49
2018-12-29T02:10:55.189Z,70.54
2018-12-29T02:13:25.316Z,71.03
2018-12-29T02:15:55.255Z,71.61
2018-12-29T02:18:25.169Z,71.17
2018-12-29T02:20:55.135Z,71.65
2018-12-29T02:23:25.123Z,71.67
2018-12-29T02:25:55.073Z,72.22
2018-12-29T02:28:25.006Z,73.49
2018-12-29T02:30:55.014Z,73.85
2018-12-29T02:33:24.875Z,74.51
2018-12-29T02:35:54.836Z,75.09
2018-12-29T02:38:24.754Z,74.11
2018-12-29T02:40:54.703Z,74.11
2018-12-29T02:43:24.557Z,74.12
2018-12-29T02:45:54.506Z,74.78
2018-12-29T02:48:24.439Z,74.09
2018-12-29T02:50:54.314Z,75.13
2018-12-29T02:53:24.218Z,75.88
2018-12-29T02:55:54.103Z,75.92
2018-12-29T02:58:23.960Z,75.14
2018-12-29T03:00:53.928Z,75.30
2018-12-29T03:03:23.849Z,74.94
2018-12-29T03:05:53.848Z,76.14
2018-12-29T03:08:23.722Z,77.22
2018-12-29T03:10:53.649Z,77.36
2018-12-29T03:13:23.741Z,78.11
2018-12-29T03:15:53.554Z,78.39
2018-12-29T03:18:23.529Z,78.19
2018-12-29T03:20:53.445Z,78.73
2018-12-29T03:23:23.511Z,79.23
2018-12-29T03:25:53.470Z,80.28
2018-12-29T03:28:23.485Z,80.92
2018-12-29T03:30:53.401Z,81.36
2018-12-29T03:33:23.434Z,81.56
2018-12-29T03:35:53.384Z,80.89
2018-12-29T03:38:23.208Z,81.04
2018-12-29T03:40:53.067Z,81.77
2018-12-29T03:43:23.040Z,80.65
2018-12-29T03:45:52.941Z,78.82
2018-12-29T03:48:22.911Z,78.50
2018-12-29T03:50:52.868Z,77.94
2018-12-29T03:53:22.768Z,78.40
2018-12-29T03:55:52.796Z,78.56
2018-12-29T03:58:22.689Z,78.56
2018-12-29T04:00:52.629Z,77.90
2018-12-29T04:03:22.481Z,79.19
2018-12-29T04:05:52.410Z,77.85
2018-12-29T04:08:22.326Z,77.66
2018-12-29T04:10:52.295Z,79.97
2018-12-29T04:13:22.233Z,79.43
2018-12-29T04:15:57.910Z,80.52
2018-12-29T04:18:23.682Z,79.81
2018-12-29T04:20:53.559Z,80.53
2018-12-29T04:23:23.489Z,81.37
2018-12-29T04:25:53.455Z,81.67
2018-12-29T04:28:23.474Z,81.53
2018-12-29T04:30:53.319Z,81.04
2018-12-29T04:33:23.209Z,80.65
2018-12-29T04:35:53.052Z,80.78
2018-12-29T04:38:22.987Z,81.33
2018-12-29T04:40:52.857Z,81.05
2018-12-29T04:43:22.750Z,80.52
2018-12-29T04:45:52.579Z,79.37
2018-12-29T04:48:22.581Z,79.12
2018-12-29T04:50:52.411Z,79.66
2018-12-29T04:53:22.322Z,79.86
2018-12-29T04:55:52.187Z,81.37
2018-12-29T04:58:22.098Z,82.58
2018-12-29T05:00:51.979Z,80.99
2018-12-29T05:03:21.898Z,80.16
2018-12-29T05:05:51.799Z,80.59
2018-12-29T05:08:21.712Z,79.73
2018-12-29T05:10:52.703Z,79.89
2018-12-29T05:13:22.582Z,80.83
2018-12-29T05:15:52.483Z,80.64
2018-12-29T05:18:22.433Z,80.95
2018-12-29T05:20:52.299Z,81.27
2018-12-29T05:23:22.296Z,81.42
2018-12-29T05:25:52.186Z,80.97
2018-12-29T05:28:22.136Z,80.85
2018-12-29T05:30:51.971Z,81.19
2018-12-29T05:33:21.842Z,81.10
2018-12-29T05:35:51.755Z,82.00
2018-12-29T05:38:21.614Z,82.00
2018-12-29T05:40:51.527Z,81.63
2018-12-29T05:43:21.431Z,79.74
2018-12-29T05:45:51.334Z,79.49
2018-12-29T05:48:21.294Z,79.81
2018-12-29T05:50:51.186Z,81.07
2018-12-29T05:53:21.085Z,81.96
2018-12-29T05:55:50.996Z,81.72
2018-12-29T05:58:20.847Z,81.87
2018-12-29T06:00:50.800Z,81.80
2018-12-29T06:03:20.824Z,81.29
2018-12-29T06:05:54.870Z,81.99
2018-12-29T06:08:25.673Z,82.67
2018-12-29T06:10:55.565Z,83.04
2018-12-29T06:13:25.492Z,82.29
2018-12-29T06:15:55.385Z,82.50
2018-12-29T06:18:25.259Z,81.52
2018-12-29T06:20:55.206Z,81.93
2018-12-29T06:23:25.084Z,81.60
2018-12-29T06:25:54.978Z,82.49
2018-12-29T06:28:24.938Z,81.88
2018-12-29T06:30:54.783Z,81.54
2018-12-29T06:33:24.739Z,82.46
2018-12-29T06:35:54.612Z,81.90
2018-12-29T06:38:24.590Z,81.76
2018-12-29T06:40:54.497Z,81.86
2018-12-29T06:43:24.396Z,82.06
2018-12-29T06:45:54.323Z,81.53
2018-12-29T06:48:24.217Z,80.71
2018-12-29T06:50:54.082Z,81.03
2018-12-29T06:53:24.038Z,80.62
2018-12-29T06:55:53.990Z,78.51
2018-12-29T06:58:23.912Z,78.62
2018-12-29T07:00:53.901Z,79.53
2018-12-29T07:03:23.738Z,80.20
2018-12-29T07:05:53.626Z,78.98
2018-12-29T07:08:23.482Z,80.90
2018-12-29T07:10:53.353Z,80.98
2018-12-29T07:13:23.229Z,80.81
2018-12-29T07:15:53.210Z,80.52
2018-12-29T07:18:23.090Z,79.65
2018-12-29T07:20:53.048Z,79.14
2018-12-29T07:23:23.071Z,79.80
2018-12-29T07:25:53.083Z,79.39
2018-12-29T07:28:22.960Z,79.57
2018-12-29T07:30:52.798Z,80.68
2018-12-29T07:33:22.674Z,80.16
2018-12-29T07:35:52.613Z,79.88
2018-12-29T07:38:22.517Z,80.18
2018-12-29T07:40:52.407Z,80.55
2018-12-29T07:43:22.294Z,80.11
2018-12-29T07:45:52.157Z,80.07
2018-12-29T07:48:22.066Z,80.91
2018-12-29T07:50:51.946Z,79.80
2018-12-29T07:53:21.949Z,80.21
2018-12-29T07:55:51.954Z,80.28
2018-12-29T07:58:21.944Z,78.63
2018-12-29T08:00:51.900Z,79.75
2018-12-29T08:03:21.736Z,79.86
2018-12-29T08:08:27.710Z,78.03
2018-12-29T08:10:57.602Z,80.19
2018-12-29T08:13:27.543Z,80.28
2018-12-29T08:15:57.509Z,80.00
2018-12-29T08:18:27.395Z,79.92
2018-12-29T08:20:57.263Z,79.93
2018-12-29T08:23:27.156Z,81.78
2018-12-29T08:25:57.064Z,82.23
2018-12-29T08:28:26.938Z,81.43
2018-12-29T08:30:56.805Z,81.20
2018-12-29T08:33:26.781Z,81.27
2018-12-29T08:35:56.693Z,81.13
2018-12-29T08:38:26.583Z,81.05
2018-12-29T08:40:56.518Z,81.71
2018-12-29T08:43:26.534Z,81.18
2018-12-29T08:45:56.437Z,80.39
2018-12-29T08:48:26.281Z,79.86
2018-12-29T08:50:56.311Z,80.22
2018-12-29T08:53:26.287Z,78.98
2018-12-29T08:55:56.264Z,79.03
2018-12-29T08:58:26.190Z,77.72
2018-12-29T09:00:56.189Z,76.44
2018-12-29T09:03:26.087Z,76.96
2018-12-29T09:05:55.996Z,77.01
2018-12-29T09:08:25.952Z,75.14
2018-12-29T09:10:55.873Z,76.02
2018-12-29T09:13:25.904Z,77.89
2018-12-29T09:15:55.835Z,77.28
2018-12-29T09:18:25.780Z,77.01
2018-12-29T09:20:55.699Z,77.29
2018-12-29T09:23:25.665Z,76.08
2018-12-29T09:25:55.593Z,71.18
2018-12-29T09:28:25.588Z,70.58
2018-12-29T09:30:55.470Z,72.75
2018-12-29T09:33:25.327Z,70.81
2018-12-29T09:35:56.325Z,68.80
2018-12-29T09:38:27.495Z,70.40
2018-12-29T09:40:57.600Z,70.20
2018-12-29T09:43:27.526Z,68.28
2018-12-29T09:45:57.414Z,65.03
2018-12-29T09:48:27.367Z,63.34
2018-12-29T09:50:57.321Z,64.12
2018-12-29T09:53:27.247Z,63.08
2018-12-29T09:55:57.126Z,64.16
2018-12-29T09:58:26.964Z,64.56
2018-12-29T10:00:56.857Z,64.80
2018-12-29T10:03:26.692Z,65.28
2018-12-29T10:05:56.641Z,66.41
2018-12-29T10:08:27.626Z,66.16
2018-12-29T10:10:57.500Z,65.88
2018-12-29T10:13:27.337Z,66.21
2018-12-29T10:15:57.257Z,64.87
2018-12-29T10:18:27.150Z,65.89
2018-12-29T10:20:57.040Z,65.68
2018-12-29T10:23:26.986Z,64.50
2018-12-29T10:25:57.031Z,64.76
2018-12-29T10:28:27.126Z,63.72
2018-12-29T10:30:57.053Z,63.74
2018-12-29T10:33:27.024Z,64.55
2018-12-29T10:35:57.026Z,64.61
2018-12-29T10:38:26.984Z,62.71
2018-12-29T10:40:56.816Z,63.93
2018-12-29T10:43:26.757Z,64.79
2018-12-29T10:45:56.692Z,65.60
2018-12-29T10:48:26.578Z,66.37
2018-12-29T10:50:56.425Z,66.79
2018-12-29T10:53:26.460Z,68.27
2018-12-29T10:55:56.373Z,69.92
2018-12-29T10:58:26.211Z,68.70
2018-12-29T11:00:56.099Z,68.78
2018-12-29T11:03:26.002Z,69.10
2018-12-29T11:05:55.960Z,69.62
2018-12-29T11:08:25.796Z,70.80
2018-12-29T11:10:55.825Z,71.05
2018-12-29T11:13:25.655Z,72.20
2018-12-29T11:15:55.706Z,71.71
2018-12-29T11:18:25.597Z,72.22
2018-12-29T11:20:55.474Z,71.45
2018-12-29T11:23:25.478Z,70.12
2018-12-29T11:25:55.485Z,71.26
2018-12-29T11:28:25.367Z,70.94
2018-12-29T11:30:55.448Z,72.50
2018-12-29T11:33:25.317Z,70.54
2018-12-29T11:35:56.716Z,69.18
2018-12-29T11:38:26.744Z,71.17
2018-12-29T11:40:56.674Z,71.21
2018-12-29T11:43:26.637Z,72.30
2018-12-29T11:45:56.559Z,70.93
2018-12-29T11:48:26.422Z,71.03
2018-12-29T11:50:56.329Z,71.29
2018-12-29T11:53:26.313Z,70.64
2018-12-29T11:55:56.270Z,69.76
2018-12-29T11:58:26.139Z,70.10
2018-12-29T12:00:56.126Z,69.58
2018-12-29T12:03:26.050Z,68.46
2018-12-29T12:05:56.270Z,68.60
2018-12-29T12:08:26.100Z,67.76
2018-12-29T12:10:56.080Z,67.58
2018-12-29T12:13:25.915Z,68.34
2018-12-29T12:15:55.941Z,68.15
2018-12-29T12:18:25.872Z,67.64
2018-12-29T12:20:55.763Z,68.24
2018-12-29T12:23:25.582Z,69.25
2018-12-29T12:25:55.497Z,68.96
2018-12-29T12:28:25.478Z,68.12
2018-12-29T12:30:55.444Z,67.30
2018-12-29T12:33:25.617Z,66.20
2018-12-29T12:35:55.504Z,66.59
2018-12-29T12:38:25.368Z,67.51
2018-12-29T12:40:55.205Z,67.21
2018-12-29T12:43:25.147Z,66.75
2018-12-29T12:45:55.190Z,66.82
2018-12-29T12:48:25.048Z,66.98
2018-12-29T12:50:55.174Z,66.49
2018-12-29T12:53:25.126Z,66.85
2018-12-29T12:55:55.057Z,67.20
2018-12-29T12:58:25.459Z,67.33
2018-12-29T13:00:55.727Z,67.30
2018-12-29T13:03:25.978Z,68.11
2018-12-29T13:05:55.831Z,67.60
2018-12-29T13:08:25.777Z,67.58
2018-12-29T13:10:55.685Z,67.75
2018-12-29T13:13:25.580Z,67.85
2018-12-29T13:15:55.691Z,67.98
2018-12-29T13:18:25.651Z,67.79
2018-12-29T13:20:55.566Z,66.70
2018-12-29T13:23:25.463Z,66.64
2018-12-29T13:25:55.395Z,66.70
2018-12-29T13:28:25.419Z,66.96
2018-12-29T13:30:55.353Z,67.06
2018-12-29T13:33:25.265Z,66.84
2018-12-29T13:35:55.243Z,66.89
2018-12-29T13:38:25.104Z,66.74
2018-12-29T13:40:54.995Z,66.74
2018-12-29T13:43:24.920Z,67.35
2018-12-29T13:45:54.790Z,67.14
2018-12-29T13:48:24.633Z,66.48
2018-12-29T13:50:54.675Z,68.42
2018-12-29T13:53:24.533Z,69.13
2018-12-29T13:55:54.483Z,68.14
2018-12-29T13:58:24.383Z,68.43
2018-12-29T14:00:54.284Z,68.27
2018-12-29T14:03:24.130Z,68.53
2018-12-29T14:05:54.331Z,68.45
2018-12-29T14:08:24.155Z,68.51
2018-12-29T14:10:54.028Z,68.54
2018-12-29T14:13:23.893Z,67.68
2018-12-29T14:15:53.800Z,67.53
2018-12-29T14:18:28.202Z,67.70
2018-12-29T14:20:55.449Z,69.33
2018-12-29T14:23:25.825Z,68.34
2018-12-29T14:25:55.656Z,68.99
2018-12-29T14:28:25.729Z,68.49
2018-12-29T14:30:55.581Z,68.03
2018-12-29T14:33:25.583Z,68.07
2018-12-29T14:35:55.491Z,67.86
2018-12-29T14:38:25.492Z,68.02
2018-12-29T14:40:55.386Z,69.06
2018-12-29T14:43:25.256Z,68.60
2018-12-29T14:45:55.483Z,68.47
2018-12-29T14:48:25.340Z,68.28
2018-12-29T14:50:55.372Z,68.25
2018-12-29T14:53:25.288Z,68.12
2018-12-29T14:55:55.257Z,67.91
2018-12-29T14:58:25.157Z,68.55
2018-12-29T15:00:55.033Z,68.46
2018-12-29T15:03:24.870Z,68.70
2018-12-29T15:05:54.838Z,68.79
2018-12-29T15:08:25.021Z,68.91
2018-12-29T15:10:55.013Z,69.27
2018-12-29T15:13:25.221Z,69.41
2018-12-29T15:15:55.167Z,69.26
2018-12-29T15:18:25.331Z,69.25
2018-12-29T15:20:55.679Z,69.43
2018-12-29T15:23:25.559Z,70.09
2018-12-29T15:25:57.172Z,70.50
2018-12-29T15:28:27.739Z,70.82
2018-12-29T15:30:57.589Z,71.52
2018-12-29T15:33:27.843Z,71.88
2018-12-29T15:35:57.919Z,72.14
2018-12-29T15:38:27.897Z,71.70
2018-12-29T15:40:58.098Z,71.70
2018-12-29T15:43:27.993Z,71.80
2018-12-29T15:45:57.895Z,71.91
2018-12-29T15:48:28.016Z,72.04
2018-12-29T15:50:57.888Z,71.92
2018-12-29T15:53:27.763Z,72.06
2018-12-29T15:55:57.622Z,72.26
2018-12-29T15:58:27.464Z,73.10
2018-12-29T16:00:57.403Z,73.66
2018-12-29T16:03:27.258Z,73.56
2018-12-29T16:05:57.580Z,73.45
2018-12-29T16:08:28.067Z,73.30
2018-12-29T16:10:58.054Z,73.23
2018-12-29T16:13:27.964Z,73.01
2018-12-29T16:15:57.899Z,72.65
2018-12-29T16:18:28.171Z,72.37
2018-12-29T16:20:58.042Z,73.58
2018-12-29T16:23:27.858Z,73.18
2018-12-29T16:25:57.764Z,71.75
2018-12-29T16:28:27.759Z,71.69
2018-12-29T16:30:57.621Z,71.91
2018-12-29T16:33:27.572Z,72.06
2018-12-29T16:35:57.868Z,71.61
2018-12-29T16:38:27.734Z,71.51
2018-12-29T16:40:58.217Z,71.08
2018-12-29T16:43:28.255Z,71.49
2018-12-29T16:45:58.109Z,71.34
2018-12-29T16:48:28.021Z,71.08
2018-12-29T16:50:58.173Z,71.30
2018-12-29T16:53:29.389Z,71.03
2018-12-29T16:55:59.491Z,71.17
2018-12-29T16:58:29.462Z,71.73
2018-12-29T17:00:59.785Z,71.75
2018-12-29T17:03:29.665Z,72.21
2018-12-29T17:05:59.632Z,72.75
2018-12-29T17:08:29.464Z,73.09
2018-12-29T17:10:59.409Z,73.46
2018-12-29T17:13:30.398Z,72.99
2018-12-29T17:16:00.323Z,72.33
2018-12-29T17:18:30.227Z,72.50
2018-12-29T17:21:00.470Z,72.46
2018-12-29T17:23:30.390Z,72.33
2018-12-29T17:26:00.318Z,72.42
2018-12-29T17:28:30.668Z,72.51
2018-12-29T17:31:00.607Z,72.63
2018-12-29T17:33:30.555Z,72.08
2018-12-29T17:36:00.404Z,71.91
2018-12-29T17:38:30.381Z,71.69
2018-12-29T17:41:00.609Z,71.92
2018-12-29T17:43:30.471Z,71.94
2018-12-29T17:46:00.371Z,72.28
2018-12-29T17:48:30.331Z,72.11
2018-12-29T17:51:00.180Z,72.70
2018-12-29T17:53:30.347Z,73.47
2018-12-29T17:56:00.261Z,73.30
2018-12-29T17:58:30.213Z,73.21
2018-12-29T18:01:00.063Z,73.69
2018-12-29T18:03:29.939Z,73.99
2018-12-29T18:06:00.220Z,74.11
2018-12-29T18:08:30.173Z,74.34
2018-12-29T18:11:00.118Z,74.46
2018-12-29T18:13:30.010Z,74.38
2018-12-29T18:15:59.864Z,74.18
2018-12-29T18:18:29.769Z,74.16
2018-12-29T18:20:59.730Z,74.30
2018-12-29T18:23:30.065Z,74.35
2018-12-29T18:26:00.006Z,74.38
2018-12-29T18:28:29.939Z,74.80
2018-12-29T18:30:59.914Z,73.95
2018-12-29T18:33:37.058Z,74.19
2018-12-29T18:36:01.391Z,74.24
2018-12-29T18:38:31.429Z,74.21
2018-12-29T18:41:01.449Z,74.32
2018-12-29T18:43:31.402Z,74.26
2018-12-29T18:46:01.369Z,74.33
2018-12-29T18:48:31.243Z,74.00
2018-12-29T18:51:01.169Z,74.09
2018-12-29T18:53:31.087Z,75.29
2018-12-29T18:56:00.933Z,75.04
2018-12-29T18:58:30.884Z,75.14
2018-12-29T19:01:00.800Z,74.79
2018-12-29T19:03:30.797Z,74.78
2018-12-29T19:06:00.991Z,75.05
2018-12-29T19:08:30.990Z,75.12
2018-12-29T19:11:00.850Z,75.03
2018-12-29T19:13:30.719Z,75.40
2018-12-29T19:16:00.878Z,75.46
2018-12-29T19:18:30.738Z,76.85
2018-12-29T19:21:00.647Z,76.69
2018-12-29T19:23:30.874Z,76.33
2018-12-29T19:26:01.079Z,76.01
2018-12-29T19:28:31.372Z,75.69
2018-12-29T19:31:01.302Z,75.76
2018-12-29T19:33:31.518Z,75.47
2018-12-29T19:36:01.823Z,75.64
2018-12-29T19:38:31.768Z,75.32
2018-12-29T19:41:01.710Z,75.32
2018-12-29T19:43:31.832Z,75.47
2018-12-29T19:46:01.774Z,75.85
2018-12-29T19:48:31.705Z,75.70
2018-12-29T19:51:01.676Z,74.88
2018-12-29T19:53:31.928Z,75.12
2018-12-29T19:56:03.101Z,76.25
2018-12-29T19:58:33.058Z,77.43
2018-12-29T20:01:03.123Z,77.10
2018-12-29T20:03:32.996Z,76.45
2018-12-29T20:06:02.899Z,76.24
2018-12-29T20:08:34.567Z,76.56
2018-12-29T20:11:04.363Z,77.25
2018-12-29T20:13:34.249Z,78.32
2018-12-29T20:16:04.095Z,78.35
2018-12-29T20:18:34.176Z,78.00
2018-12-29T20:21:06.014Z,77.58
2018-12-29T20:23:35.736Z,78.76
2018-12-29T20:26:05.622Z,78.90
2018-12-29T20:28:35.581Z,78.82
2018-12-29T20:31:05.647Z,78.33
2018-12-29T20:33:35.547Z,79.02
2018-12-29T20:36:05.431Z,78.92
2018-12-29T20:38:35.340Z,79.31
2018-12-29T20:41:05.363Z,79.61
2018-12-29T20:43:35.532Z,79.54
2018-12-29T20:46:05.467Z,79.09
2018-12-29T20:48:35.371Z,79.37
2018-12-29T20:51:05.463Z,79.11
2018-12-29T20:53:35.367Z,79.66
2018-12-29T20:56:05.612Z,79.62
2018-12-29T20:58:35.572Z,79.40
2018-12-29T21:01:05.536Z,79.56
2018-12-29T21:03:35.398Z,79.85
2018-12-29T21:06:05.453Z,80.69
2018-12-29T21:08:35.702Z,80.61
2018-12-29T21:11:05.578Z,80.27
2018-12-29T21:13:35.459Z,79.72
2018-12-29T21:16:05.477Z,78.97
2018-12-29T21:18:35.414Z,78.86
2018-12-29T21:21:05.688Z,78.55
2018-12-29T21:23:35.570Z,78.66
2018-12-29T21:26:05.525Z,77.97
2018-12-29T21:28:35.536Z,78.07
2018-12-29T21:31:05.525Z,77.80
2018-12-29T21:33:35.732Z,78.42
2018-12-29T21:36:05.784Z,78.10
2018-12-29T21:38:35.644Z,78.22
2018-12-29T21:41:05.504Z,77.91
2018-12-29T21:43:35.427Z,77.69
2018-12-29T21:46:05.759Z,76.33
2018-12-29T21:48:35.624Z,77.12
2018-12-29T21:51:05.519Z,77.02
2018-12-29T21:53:35.378Z,77.03
2018-12-29T21:56:05.545Z,75.86
2018-12-29T21:58:35.807Z,76.22
2018-12-29T22:01:05.716Z,76.60
2018-12-29T22:03:35.665Z,77.09
2018-12-29T22:06:05.519Z,76.87
2018-12-29T22:08:35.443Z,77.57
2018-12-29T22:11:05.727Z,77.52
2018-12-29T22:13:35.600Z,78.22
2018-12-29T22:16:05.495Z,77.58
2018-12-29T22:18:36.419Z,77.21
2018-12-29T22:21:06.334Z,77.61
2018-12-29T22:23:36.492Z,78.14
2018-12-29T22:26:06.326Z,77.60
2018-12-29T22:28:36.370Z,76.77
2018-12-29T22:31:06.223Z,76.78
2018-12-29T22:33:36.096Z,77.30
2018-12-29T22:36:06.345Z,76.03
2018-12-29T22:38:36.315Z,76.08
2018-12-29T22:41:06.351Z,76.14
2018-12-29T22:43:36.371Z,76.00
2018-12-29T22:46:06.261Z,76.64
2018-12-29T22:48:36.454Z,76.72
2018-12-29T22:51:06.529Z,76.32
2018-12-29T22:53:36.492Z,77.74
2018-12-29T22:56:06.609Z,77.40
2018-12-29T22:58:36.445Z,77.56
2018-12-29T23:01:06.740Z,77.89
2018-12-29T23:03:36.855Z,78.40
2018-12-29T23:06:06.827Z,78.31
2018-12-29T23:08:36.658Z,79.34
2018-12-29T23:11:06.899Z,80.34
2018-12-29T23:13:36.732Z,80.67
2018-12-29T23:16:06.702Z,81.21
2018-12-29T23:18:36.526Z,81.77
2018-12-29T23:21:06.429Z,81.68
2018-12-29T23:23:36.325Z,82.11
2018-12-29T23:26:06.235Z,83.37
2018-12-29T23:28:36.180Z,83.60
2018-12-29T23:31:06.561Z,84.49
2018-12-29T23:33:36.513Z,84.54
2018-12-29T23:36:06.382Z,85.09
2018-12-29T23:38:36.332Z,85.76
2018-12-29T23:41:06.322Z,85.55
2018-12-29T23:43:36.677Z,83.43
2018-12-29T23:46:06.561Z,84.54
2018-12-29T23:48:36.467Z,85.47
2018-12-29T23:51:06.409Z,85.40
2018-12-29T23:53:36.245Z,85.33
2018-12-29T23:56:06.486Z,85.95
2018-12-29T23:58:36.401Z,85.70
